Tinsley, Kentucky
Current Conditions -  °F | °C
As of 12:15 PM on Saturday 25 Oct 2014 (Local Time) from K1A6 Reporting Station
Clear Clear  
Wind Chill: 56°   Ceiling: Unl
Heat Index: 56°   Visibility: 10mi
Dew Point: 47°   Wind: 0mph
Humidity: 70%   Direction: NA
Pressure: 30.1"   Gusts: NA
Location:  36.7417°N, 83.6911°W
Report Text: K1A6 251615Z AUTO 00000KT 10SM CLR 13/08 A3010 RMK AO2 T01340081
Loading
Personal Weather Stations






























Interactive Weather Map
Tropical Storm Tracking
New forecast layout! Learn more

10-Day Weather Forecast

Advertisements
Track Severe Weather on mobile